createdAt,value
2023-04-03T00:00:29.645Z,4.80
2023-04-03T00:01:33.357Z,4.80
2023-04-03T00:02:37.180Z,4.80
2023-04-03T00:03:42.600Z,4.80
2023-04-03T00:04:47.400Z,4.80
2023-04-03T00:05:50.489Z,4.80
2023-04-03T00:06:54.156Z,4.70
2023-04-03T00:07:56.765Z,4.70
2023-04-03T00:09:00.697Z,4.70
2023-04-03T00:10:03.751Z,4.70
2023-04-03T00:11:07.970Z,4.70
2023-04-03T00:12:13.244Z,4.70
2023-04-03T00:13:19.285Z,4.70
2023-04-03T00:14:21.948Z,4.70
2023-04-03T00:15:26.958Z,4.70
2023-04-03T00:16:29.759Z,4.70
2023-04-03T00:17:33.474Z,4.70
2023-04-03T00:18:37.380Z,4.60
2023-04-03T00:19:39.918Z,4.60
2023-04-03T00:20:43.574Z,4.60
2023-04-03T00:21:46.250Z,4.60
2023-04-03T00:22:49.626Z,4.60
2023-04-03T00:23:52.511Z,4.60
2023-04-03T00:24:56.174Z,4.60
2023-04-03T00:25:58.644Z,4.60
2023-04-03T00:27:02.055Z,4.60
2023-04-03T00:28:07.977Z,4.50
2023-04-03T00:29:11.913Z,4.50
2023-04-03T00:30:18.159Z,4.50
2023-04-03T00:31:21.806Z,4.50
2023-04-03T00:32:24.719Z,4.50
2023-04-03T00:33:28.378Z,4.50
2023-04-03T00:34:31.541Z,4.50
2023-04-03T00:35:39.139Z,4.50
2023-04-03T00:36:41.956Z,4.50
2023-04-03T00:37:46.040Z,4.40
2023-04-03T00:38:48.526Z,4.50
2023-04-03T00:39:54.632Z,4.40
2023-04-03T00:40:57.212Z,4.40
2023-04-03T00:42:00.915Z,4.40
2023-04-03T00:43:11.988Z,4.40
2023-04-03T00:45:04.298Z,4.40
2023-04-03T00:46:07.979Z,4.40
2023-04-03T00:47:14.724Z,4.40
2023-04-03T00:48:23.897Z,4.40
2023-04-03T00:49:27.122Z,4.30
2023-04-03T00:50:31.857Z,4.30
2023-04-03T00:51:35.638Z,4.30
2023-04-03T00:52:40.282Z,4.30
2023-04-03T00:53:49.684Z,4.30
2023-04-03T00:54:56.115Z,4.30
2023-04-03T00:56:00.724Z,4.30
2023-04-03T00:57:06.465Z,4.20
2023-04-03T00:58:16.079Z,4.20
2023-04-03T00:59:26.378Z,4.20
2023-04-03T01:00:30.331Z,4.20
2023-04-03T01:01:34.011Z,4.20
2023-04-03T01:02:37.773Z,4.20
2023-04-03T01:03:41.134Z,4.20
2023-04-03T01:04:48.329Z,4.10
2023-04-03T01:05:51.940Z,4.10
2023-04-03T01:06:57.379Z,4.10
2023-04-03T01:08:03.812Z,4.10
2023-04-03T01:09:08.113Z,4.10
2023-04-03T01:10:15.757Z,4.10
2023-04-03T01:11:19.426Z,4.10
2023-04-03T01:12:24.674Z,4.10
2023-04-03T01:13:33.738Z,4.10
2023-04-03T01:14:36.308Z,4.10
2023-04-03T01:15:40.950Z,4.10
2023-04-03T01:16:43.723Z,4.00
2023-04-03T01:17:50.986Z,4.00
2023-04-03T01:18:53.587Z,4.00
2023-04-03T01:20:40.652Z,4.00
2023-04-03T01:22:08.538Z,4.00
2023-04-03T01:23:32.785Z,4.00
2023-04-03T01:24:40.398Z,4.00
2023-04-03T01:25:49.436Z,4.00
2023-04-03T01:26:53.173Z,3.90
2023-04-03T01:27:56.422Z,3.90
2023-04-03T01:29:03.107Z,3.90
2023-04-03T01:30:08.472Z,3.90
2023-04-03T01:31:23.782Z,3.90
2023-04-03T01:32:27.764Z,3.90
2023-04-03T01:33:32.107Z,3.90
2023-04-03T01:34:35.885Z,3.90
2023-04-03T01:35:41.128Z,3.90
2023-04-03T01:36:45.378Z,3.80
2023-04-03T01:37:47.754Z,3.80
2023-04-03T01:38:51.500Z,3.80
2023-04-03T01:39:55.083Z,3.80
2023-04-03T01:40:58.354Z,3.80
2023-04-03T01:42:02.152Z,3.80
2023-04-03T01:43:09.410Z,3.80
2023-04-03T01:44:16.969Z,3.70
2023-04-03T01:45:21.051Z,3.70
2023-04-03T01:46:24.741Z,3.70
2023-04-03T01:47:29.902Z,3.70
2023-04-03T01:48:32.786Z,3.70
2023-04-03T01:49:37.652Z,3.70
2023-04-03T01:50:40.567Z,3.70
2023-04-03T01:51:44.170Z,3.70
2023-04-03T01:52:47.444Z,3.70
2023-04-03T01:53:51.053Z,3.60
2023-04-03T01:54:53.857Z,3.60
2023-04-03T01:55:58.246Z,3.60
2023-04-03T01:57:01.124Z,3.60
2023-04-03T01:58:04.715Z,3.60
2023-04-03T01:59:07.796Z,3.60
2023-04-03T02:00:13.169Z,3.60
2023-04-03T02:01:16.179Z,3.60
2023-04-03T02:02:21.192Z,3.50
2023-04-03T02:03:25.412Z,3.50
2023-04-03T02:04:30.966Z,3.50
2023-04-03T02:05:33.846Z,3.50
2023-04-03T02:06:38.265Z,3.50
2023-04-03T02:07:42.821Z,3.50
2023-04-03T02:08:46.565Z,3.50
2023-04-03T02:09:49.198Z,3.50
2023-04-03T02:10:53.762Z,3.50
2023-04-03T02:11:56.597Z,3.50
2023-04-03T02:13:00.288Z,3.50
2023-04-03T02:14:03.282Z,3.40
2023-04-03T02:15:08.515Z,3.40
2023-04-03T02:16:12.654Z,3.40
2023-04-03T02:17:16.081Z,3.40
2023-04-03T02:18:19.090Z,3.40
2023-04-03T02:19:24.190Z,3.40
2023-04-03T02:20:27.269Z,3.40
2023-04-03T02:21:30.932Z,3.40
2023-04-03T02:22:33.397Z,3.40
2023-04-03T02:23:37.987Z,3.40
2023-04-03T02:24:41.378Z,3.40
2023-04-03T02:25:45.103Z,3.40
2023-04-03T02:26:47.972Z,3.30
2023-04-03T02:27:52.752Z,3.30
2023-04-03T02:28:56.976Z,3.30
2023-04-03T02:30:02.539Z,3.30
2023-04-03T02:31:07.592Z,3.30
2023-04-03T02:32:13.936Z,3.30
2023-04-03T02:33:17.081Z,3.30
2023-04-03T02:34:21.025Z,3.30
2023-04-03T02:35:25.682Z,3.30
2023-04-03T02:36:31.887Z,3.20
2023-04-03T02:37:41.761Z,3.20
2023-04-03T02:38:46.771Z,3.20
2023-04-03T02:39:49.838Z,3.20
2023-04-03T02:40:55.217Z,3.20
2023-04-03T02:41:58.281Z,3.20
2023-04-03T02:43:03.649Z,3.20
2023-04-03T02:44:12.507Z,3.10
2023-04-03T02:45:20.624Z,3.10
2023-04-03T02:46:26.285Z,3.10
2023-04-03T02:47:32.136Z,3.10
2023-04-03T02:48:39.005Z,3.10
2023-04-03T02:49:48.305Z,3.10
2023-04-03T02:50:53.976Z,3.10
2023-04-03T02:51:57.783Z,3.00
2023-04-03T02:53:06.155Z,3.00
2023-04-03T02:54:10.511Z,3.00
2023-04-03T02:55:18.389Z,3.00
2023-04-03T02:56:31.647Z,3.00
2023-04-03T02:57:34.374Z,3.00
2023-04-03T02:58:38.181Z,3.00
2023-04-03T02:59:42.520Z,2.90
2023-04-03T03:00:49.074Z,2.90
2023-04-03T03:01:52.107Z,2.90
2023-04-03T03:02:57.785Z,2.90
2023-04-03T03:04:01.440Z,2.90
2023-04-03T03:05:08.793Z,2.90
2023-04-03T03:06:18.138Z,2.90
2023-04-03T03:07:24.783Z,2.90
2023-04-03T03:08:28.880Z,2.80
2023-04-03T03:09:34.089Z,2.80
2023-04-03T03:10:38.440Z,2.80
2023-04-03T03:11:43.212Z,2.80
2023-04-03T03:12:46.500Z,2.80
2023-04-03T03:13:51.698Z,2.80
2023-04-03T03:14:55.448Z,2.80
2023-04-03T03:16:00.504Z,2.80
2023-04-03T03:17:05.276Z,2.80
2023-04-03T03:18:09.689Z,2.70
2023-04-03T03:19:18.035Z,2.70
2023-04-03T03:20:23.490Z,2.70
2023-04-03T03:21:29.650Z,2.70
2023-04-03T03:22:35.064Z,2.70
2023-04-03T03:23:39.513Z,2.70
2023-04-03T03:24:44.915Z,2.70
2023-04-03T03:25:54.261Z,2.70
2023-04-03T03:27:03.418Z,2.70
2023-04-03T03:28:08.903Z,2.70
2023-04-03T03:29:13.478Z,2.70
2023-04-03T03:30:19.952Z,2.70
2023-04-03T03:31:24.341Z,2.60
2023-04-03T03:32:29.522Z,2.60
2023-04-03T03:33:34.325Z,2.60
2023-04-03T03:34:40.242Z,2.60
2023-04-03T03:35:44.829Z,2.60
2023-04-03T03:36:51.834Z,2.60
2023-04-03T03:37:56.252Z,2.60
2023-04-03T03:39:02.109Z,2.60
2023-04-03T03:40:14.595Z,2.60
2023-04-03T03:41:21.866Z,2.60
2023-04-03T03:42:27.540Z,2.60
2023-04-03T03:43:37.093Z,2.50
2023-04-03T03:44:43.539Z,2.50
2023-04-03T03:45:54.919Z,2.50
2023-04-03T03:47:02.177Z,2.50
2023-04-03T03:48:10.490Z,2.50
2023-04-03T03:49:16.155Z,2.50
2023-04-03T03:50:20.594Z,2.50
2023-04-03T03:51:26.705Z,2.50
2023-04-03T03:52:31.298Z,2.50
2023-04-03T03:53:35.001Z,2.40
2023-04-03T03:54:41.714Z,2.40
2023-04-03T03:55:45.478Z,2.40
2023-04-03T03:56:49.293Z,2.40
2023-04-03T03:57:52.192Z,2.40
2023-04-03T03:58:57.183Z,2.40
2023-04-03T04:00:00.112Z,2.40
2023-04-03T04:01:04.759Z,2.40
2023-04-03T04:02:07.885Z,2.40
2023-04-03T04:03:11.467Z,2.40
2023-04-03T04:04:14.064Z,2.40
2023-04-03T04:05:18.053Z,2.40
2023-04-03T04:06:20.765Z,2.40
2023-04-03T04:07:24.655Z,2.30
2023-04-03T04:08:28.600Z,2.30
2023-04-03T04:09:32.362Z,2.30
2023-04-03T04:10:35.317Z,2.30
2023-04-03T04:11:40.931Z,2.30
2023-04-03T04:12:44.440Z,2.30
2023-04-03T04:13:48.332Z,2.30
2023-04-03T04:14:53.249Z,2.30
2023-04-03T04:15:56.925Z,2.20
2023-04-03T04:16:59.800Z,2.20
2023-04-03T04:18:05.038Z,2.20
2023-04-03T04:19:10.879Z,2.20
2023-04-03T04:20:16.093Z,2.20
2023-04-03T04:21:19.692Z,2.20
2023-04-03T04:22:22.975Z,2.20
2023-04-03T04:23:28.205Z,2.20
2023-04-03T04:24:33.484Z,2.20
2023-04-03T04:25:38.500Z,2.20
2023-04-03T04:26:43.156Z,2.20
2023-04-03T04:27:48.191Z,2.20
2023-04-03T04:28:52.570Z,2.20
2023-04-03T04:29:57.534Z,2.10
2023-04-03T04:31:02.759Z,2.10
2023-04-03T04:32:06.027Z,2.10
2023-04-03T04:33:09.925Z,2.10
2023-04-03T04:34:13.982Z,2.10
2023-04-03T04:35:17.910Z,2.10
2023-04-03T04:36:23.194Z,2.10
2023-04-03T04:37:26.645Z,2.10
2023-04-03T04:38:30.754Z,2.10
2023-04-03T04:39:34.441Z,2.00
2023-04-03T04:40:38.874Z,2.00
2023-04-03T04:41:45.009Z,2.00
2023-04-03T04:42:47.874Z,2.00
2023-04-03T04:43:52.089Z,2.00
2023-04-03T04:44:54.586Z,2.00
2023-04-03T04:46:06.424Z,2.00
2023-04-03T04:47:12.905Z,2.00
2023-04-03T04:48:17.329Z,2.00
2023-04-03T04:49:20.591Z,2.00
2023-04-03T04:50:24.366Z,2.00
2023-04-03T04:51:41.158Z,2.00
2023-04-03T04:53:00.490Z,2.00
2023-04-03T04:54:06.075Z,2.00
2023-04-03T04:55:12.747Z,2.00
2023-04-03T04:56:16.669Z,2.00
2023-04-03T04:57:22.272Z,1.90
2023-04-03T04:58:25.428Z,1.90
2023-04-03T04:59:30.445Z,1.90
2023-04-03T05:00:35.781Z,1.90
2023-04-03T05:01:42.921Z,1.90
2023-04-03T05:02:52.585Z,1.90
2023-04-03T05:03:56.541Z,1.90
2023-04-03T05:05:02.483Z,1.90
2023-04-03T05:06:08.532Z,1.90
2023-04-03T05:07:13.501Z,1.90
2023-04-03T05:08:18.063Z,1.90
2023-04-03T05:09:23.412Z,1.90
2023-04-03T05:10:32.141Z,1.90
2023-04-03T05:11:35.822Z,1.90
2023-04-03T05:12:39.970Z,1.80
2023-04-03T05:13:44.858Z,1.90
2023-04-03T05:14:48.438Z,1.80
2023-04-03T05:15:54.065Z,1.80
2023-04-03T05:17:02.521Z,1.80
2023-04-03T05:18:14.012Z,1.80
2023-04-03T05:19:17.047Z,1.80
2023-04-03T05:20:23.197Z,1.90
2023-04-03T05:21:33.527Z,1.80
2023-04-03T05:22:43.034Z,1.80
2023-04-03T05:23:49.122Z,1.80
2023-04-03T05:24:55.682Z,1.80
2023-04-03T05:25:59.364Z,1.80
2023-04-03T05:27:03.412Z,1.80
2023-04-03T05:28:08.526Z,1.90
2023-04-03T05:29:11.724Z,1.90
2023-04-03T05:30:16.418Z,1.90
2023-04-03T05:31:19.359Z,1.90
2023-04-03T05:32:23.725Z,2.00
2023-04-03T05:33:32.127Z,2.00
2023-04-03T05:34:37.015Z,2.10
2023-04-03T05:35:42.236Z,2.20
2023-04-03T05:36:49.544Z,2.40
2023-04-03T05:37:52.826Z,2.60
2023-04-03T05:38:57.352Z,2.70
2023-04-03T05:40:03.511Z,2.90
2023-04-03T05:41:06.163Z,3.10
2023-04-03T05:42:10.427Z,3.30
2023-04-03T05:43:13.900Z,3.50
2023-04-03T05:44:19.564Z,3.70
2023-04-03T05:45:23.373Z,3.90
2023-04-03T05:46:26.925Z,4.00
2023-04-03T05:47:32.273Z,4.20
2023-04-03T05:48:36.371Z,4.40
2023-04-03T05:49:41.781Z,4.60
2023-04-03T05:50:45.453Z,4.70
2023-04-03T05:51:53.514Z,4.90
2023-04-03T05:53:02.518Z,5.00
2023-04-03T05:54:13.464Z,5.10
2023-04-03T05:55:19.229Z,5.20
2023-04-03T05:56:22.651Z,5.30
2023-04-03T05:57:25.604Z,5.40
2023-04-03T05:58:29.050Z,5.50
2023-04-03T05:59:32.060Z,5.50
2023-04-03T06:00:37.325Z,5.60
2023-04-03T06:01:40.790Z,5.70
2023-04-03T06:02:44.043Z,5.80
2023-04-03T06:03:53.872Z,6.00
2023-04-03T06:04:56.622Z,6.10
2023-04-03T06:06:00.128Z,6.20
2023-04-03T06:07:03.465Z,6.40
2023-04-03T06:08:06.858Z,6.50
2023-04-03T06:09:09.446Z,6.70
2023-04-03T06:10:14.736Z,6.80
2023-04-03T06:11:19.636Z,6.90
2023-04-03T06:12:22.647Z,7.10
2023-04-03T06:13:26.020Z,7.10
2023-04-03T06:14:28.719Z,7.20
2023-04-03T06:15:32.136Z,7.20
2023-04-03T06:16:35.795Z,7.20
2023-04-03T06:17:40.863Z,7.10
2023-04-03T06:18:44.188Z,7.20
2023-04-03T06:19:48.432Z,7.20
2023-04-03T06:20:52.083Z,7.20
2023-04-03T06:21:57.057Z,7.20
2023-04-03T06:23:00.318Z,7.30
2023-04-03T06:24:06.015Z,7.30
2023-04-03T06:25:10.464Z,7.30
2023-04-03T06:26:14.256Z,7.30
2023-04-03T06:27:18.498Z,7.40
2023-04-03T06:28:21.860Z,7.50
2023-04-03T06:29:25.741Z,7.60
2023-04-03T06:30:28.350Z,7.70
2023-04-03T06:31:32.133Z,7.80
2023-04-03T06:32:35.856Z,7.90
2023-04-03T06:33:39.614Z,8.00
2023-04-03T06:34:42.751Z,8.10
2023-04-03T06:35:47.580Z,8.20
2023-04-03T06:36:51.675Z,8.30
2023-04-03T06:37:54.994Z,8.40
2023-04-03T06:38:57.360Z,8.60
2023-04-03T06:40:02.288Z,8.80
2023-04-03T06:41:05.089Z,9.10
2023-04-03T06:42:08.487Z,9.40
2023-04-03T06:43:17.218Z,9.80
2023-04-03T06:44:19.747Z,10.20
2023-04-03T06:45:23.291Z,10.60
2023-04-03T06:46:27.695Z,11.00
2023-04-03T06:47:31.299Z,11.40
2023-04-03T06:48:33.732Z,11.70
2023-04-03T06:49:38.066Z,12.10
2023-04-03T06:50:41.706Z,12.50
2023-04-03T06:51:44.137Z,12.80
2023-04-03T06:52:47.729Z,13.10
2023-04-03T06:53:51.892Z,13.50
2023-04-03T06:54:58.148Z,13.90
2023-04-03T06:56:01.499Z,14.10
2023-04-03T06:57:05.403Z,14.40
2023-04-03T06:58:08.893Z,14.60
2023-04-03T06:59:15.917Z,14.80
2023-04-03T07:00:20.997Z,15.00
2023-04-03T07:01:24.497Z,15.20
2023-04-03T07:02:27.361Z,15.30
2023-04-03T07:03:30.958Z,15.50
2023-04-03T07:04:34.506Z,15.70
2023-04-03T07:05:37.255Z,15.90
2023-04-03T07:06:41.416Z,16.00
2023-04-03T07:07:44.577Z,16.20
2023-04-03T07:08:49.474Z,16.40
2023-04-03T07:09:52.943Z,16.50
2023-04-03T07:10:56.471Z,16.60
2023-04-03T07:11:59.898Z,16.70
2023-04-03T07:13:02.803Z,16.90
2023-04-03T07:14:07.095Z,17.00
2023-04-03T07:15:13.952Z,17.10
2023-04-03T07:16:17.536Z,17.20
2023-04-03T07:17:20.490Z,17.30
2023-04-03T07:18:24.172Z,17.40
2023-04-03T07:19:29.032Z,17.50
2023-04-03T07:20:32.426Z,17.70
2023-04-03T07:21:36.743Z,17.90
2023-04-03T07:22:40.173Z,18.00
2023-04-03T07:23:42.570Z,18.20
2023-04-03T07:24:46.256Z,18.40
2023-04-03T07:25:52.318Z,18.70
2023-04-03T07:26:55.952Z,18.90
2023-04-03T07:27:58.617Z,19.10
2023-04-03T07:29:02.193Z,19.30
2023-04-03T07:30:07.625Z,19.50
2023-04-03T07:31:14.418Z,19.80
2023-04-03T07:32:18.538Z,20.00
2023-04-03T07:33:24.018Z,20.20
2023-04-03T07:34:27.834Z,20.40
2023-04-03T07:35:30.886Z,20.60
2023-04-03T07:36:35.129Z,20.80
2023-04-03T07:38:41.547Z,21.10
2023-04-03T07:39:46.859Z,21.20
2023-04-03T07:40:50.677Z,21.30
2023-04-03T07:42:59.687Z,21.50
2023-04-03T07:44:03.582Z,21.70
2023-04-03T07:45:08.076Z,21.80
2023-04-03T07:46:12.004Z,22.00
2023-04-03T07:47:17.664Z,22.10
2023-04-03T07:48:21.661Z,22.30
2023-04-03T07:49:25.273Z,22.40
2023-04-03T07:50:28.902Z,22.50
2023-04-03T07:52:35.262Z,22.80
2023-04-03T07:53:37.712Z,22.90
2023-04-03T07:54:41.902Z,23.10
2023-04-03T07:55:44.408Z,23.20
2023-04-03T07:57:50.657Z,23.40
2023-04-03T07:58:55.430Z,23.50
2023-04-03T07:59:58.816Z,23.60
2023-04-03T08:02:06.775Z,23.80
2023-04-03T08:03:12.982Z,23.80
2023-04-03T08:04:16.467Z,24.00
2023-04-03T08:05:19.233Z,24.10
2023-04-03T08:06:32.976Z,24.20
2023-04-03T08:07:41.383Z,24.30
2023-04-03T08:08:45.527Z,24.50
2023-04-03T08:09:49.738Z,24.70
2023-04-03T08:10:54.812Z,24.90
2023-04-03T08:11:58.141Z,25.00
2023-04-03T08:13:02.599Z,25.20
2023-04-03T08:14:06.041Z,25.40
2023-04-03T08:15:09.870Z,25.60
2023-04-03T08:16:18.626Z,25.80
2023-04-03T08:17:24.359Z,25.90
2023-04-03T08:18:28.651Z,26.10
2023-04-03T08:19:31.996Z,26.30
2023-04-03T08:20:35.783Z,26.50
2023-04-03T08:21:38.148Z,26.70
2023-04-03T08:22:41.676Z,26.90
2023-04-03T08:23:45.414Z,27.10
2023-04-03T08:24:58.622Z,27.30
2023-04-03T08:26:09.926Z,27.50
2023-04-03T08:27:13.489Z,27.60
2023-04-03T08:28:16.087Z,27.70
2023-04-03T08:29:19.688Z,27.80
2023-04-03T08:30:23.121Z,27.90
2023-04-03T08:31:26.472Z,27.90
2023-04-03T08:32:31.264Z,27.90
2023-04-03T08:33:36.810Z,28.00
2023-04-03T08:34:40.503Z,28.10
2023-04-03T08:35:45.741Z,28.20
2023-04-03T08:36:49.939Z,28.40
2023-04-03T08:37:52.479Z,28.40
2023-04-03T08:38:57.682Z,28.50
2023-04-03T08:40:00.338Z,28.50
2023-04-03T08:41:17.510Z,28.60
2023-04-03T08:42:38.933Z,28.80
2023-04-03T08:44:09.861Z,28.80
2023-04-03T08:45:17.915Z,28.90
2023-04-03T08:46:27.097Z,28.90
2023-04-03T08:48:45.916Z,28.90
2023-04-03T08:49:54.138Z,29.00
2023-04-03T08:51:03.734Z,29.10
2023-04-03T08:52:16.209Z,29.20
2023-04-03T08:53:23.728Z,29.40
2023-04-03T08:54:34.116Z,29.50
2023-04-03T08:55:46.039Z,29.70
2023-04-03T08:56:48.474Z,29.80
2023-04-03T08:57:59.462Z,29.90
2023-04-03T08:59:11.374Z,30.10
2023-04-03T09:00:23.202Z,30.30
2023-04-03T09:01:33.475Z,30.50
2023-04-03T09:02:47.267Z,30.60
2023-04-03T09:03:51.583Z,30.80
2023-04-03T09:04:54.592Z,30.90
2023-04-03T09:06:05.725Z,31.00
2023-04-03T09:07:18.678Z,31.10
2023-04-03T09:08:28.348Z,31.20
2023-04-03T09:09:37.586Z,31.30
2023-04-03T09:10:43.781Z,31.40
2023-04-03T09:11:59.393Z,31.40
2023-04-03T09:13:09.296Z,31.40
2023-04-03T09:14:21.201Z,31.40
2023-04-03T09:15:37.847Z,31.40
2023-04-03T09:16:53.768Z,31.30
2023-04-03T09:18:06.821Z,31.30
2023-04-03T09:19:24.378Z,31.20
2023-04-03T09:20:40.203Z,31.10
2023-04-03T09:21:44.610Z,31.00
2023-04-03T09:22:52.066Z,31.00
2023-04-03T09:24:02.759Z,30.90
2023-04-03T09:25:15.510Z,30.80
2023-04-03T09:26:24.173Z,30.70
2023-04-03T09:27:27.709Z,30.50
2023-04-03T09:28:39.224Z,30.30
2023-04-03T09:29:47.869Z,30.10
2023-04-03T09:30:51.382Z,29.90
2023-04-03T09:32:01.697Z,29.90
2023-04-03T09:33:08.188Z,29.90
2023-04-03T09:34:22.816Z,29.90
2023-04-03T09:35:44.210Z,29.80
2023-04-03T09:36:54.818Z,29.80
2023-04-03T09:38:03.571Z,29.80
2023-04-03T09:39:09.283Z,29.90
2023-04-03T09:40:36.328Z,29.90
2023-04-03T09:41:40.899Z,30.00
2023-04-03T09:42:51.915Z,30.00
2023-04-03T09:43:59.588Z,30.00
2023-04-03T09:45:07.100Z,29.90
2023-04-03T09:46:33.101Z,29.90
2023-04-03T09:47:39.776Z,29.80
2023-04-03T09:49:05.058Z,29.70
2023-04-03T09:50:25.195Z,29.80
2023-04-03T09:51:31.315Z,29.80
2023-04-03T09:52:35.716Z,29.80
2023-04-03T09:53:43.866Z,29.80
2023-04-03T09:54:48.821Z,29.70
2023-04-03T09:55:52.995Z,29.70
2023-04-03T09:57:09.682Z,29.70
2023-04-03T09:58:39.424Z,29.60
2023-04-03T10:00:07.195Z,29.60
2023-04-03T10:01:29.200Z,29.70
2023-04-03T10:02:40.435Z,29.80
2023-04-03T10:03:47.718Z,30.00
2023-04-03T10:05:06.408Z,30.10
2023-04-03T10:06:26.588Z,30.30
2023-04-03T10:07:36.410Z,30.30
2023-04-03T10:08:41.507Z,30.40
2023-04-03T10:09:59.637Z,30.50
2023-04-03T10:11:26.195Z,30.60
2023-04-03T10:12:31.092Z,30.80
2023-04-03T10:13:41.793Z,30.90
2023-04-03T10:15:00.282Z,30.90
2023-04-03T10:16:10.389Z,30.90
2023-04-03T10:17:28.566Z,30.90
2023-04-03T10:18:44.752Z,30.80
2023-04-03T10:19:59.923Z,30.80
2023-04-03T10:21:24.752Z,30.60
2023-04-03T10:22:44.641Z,30.60
2023-04-03T10:23:52.461Z,30.60
2023-04-03T10:25:16.292Z,30.40
2023-04-03T10:26:34.052Z,30.30
2023-04-03T10:27:54.509Z,30.20
2023-04-03T10:29:08.108Z,30.10
2023-04-03T10:30:32.671Z,30.00
2023-04-03T10:31:46.493Z,29.90
2023-04-03T10:33:12.655Z,29.80
2023-04-03T10:34:27.131Z,29.80
2023-04-03T10:35:47.288Z,29.70
2023-04-03T10:37:07.827Z,29.70
2023-04-03T10:38:24.370Z,29.70
2023-04-03T10:39:40.078Z,29.60
2023-04-03T10:41:00.651Z,29.60
2023-04-03T10:42:18.191Z,29.50
2023-04-03T10:43:36.609Z,29.30
2023-04-03T10:44:58.438Z,29.30
2023-04-03T10:46:09.720Z,29.30
2023-04-03T10:47:23.528Z,29.20
2023-04-03T10:50:00.289Z,29.10
2023-04-03T10:51:19.075Z,29.00
2023-04-03T10:52:34.540Z,28.80
2023-04-03T10:53:45.965Z,28.60
2023-04-03T10:55:05.163Z,28.40
2023-04-03T10:56:17.267Z,28.20
2023-04-03T10:57:27.905Z,28.10
2023-04-03T10:58:39.234Z,28.10
2023-04-03T10:59:50.650Z,28.00
2023-04-03T11:01:00.976Z,28.00
2023-04-03T11:03:34.461Z,27.90
2023-04-03T11:04:42.997Z,27.90
2023-04-03T11:05:55.386Z,27.90
2023-04-03T11:07:11.317Z,27.80
2023-04-03T11:08:29.423Z,27.80
2023-04-03T11:09:39.513Z,27.70
2023-04-03T11:10:51.234Z,27.60
2023-04-03T11:12:03.476Z,27.50
2023-04-03T11:13:15.868Z,27.30
2023-04-03T11:14:32.164Z,27.30
2023-04-03T11:15:38.397Z,27.10
2023-04-03T11:16:54.380Z,27.00
2023-04-03T11:18:11.760Z,26.90
2023-04-03T11:19:25.716Z,26.60
2023-04-03T11:20:34.593Z,26.40
2023-04-03T11:21:43.205Z,26.20
2023-04-03T11:23:00.112Z,25.90
2023-04-03T11:24:09.628Z,25.70
2023-04-03T11:25:23.047Z,25.60
2023-04-03T11:26:35.293Z,25.50
2023-04-03T11:27:48.479Z,25.40
2023-04-03T11:29:02.221Z,25.30
2023-04-03T11:30:18.952Z,25.20
2023-04-03T11:31:46.064Z,25.10
2023-04-03T11:33:33.112Z,24.80
2023-04-03T11:34:45.674Z,24.70
2023-04-03T11:35:54.984Z,24.40
2023-04-03T11:37:02.608Z,24.30
2023-04-03T11:38:07.807Z,24.30
2023-04-03T11:39:26.120Z,24.30
2023-04-03T11:40:34.303Z,24.20
2023-04-03T11:41:38.965Z,24.20
2023-04-03T11:42:48.660Z,24.20
2023-04-03T11:44:04.714Z,24.10
2023-04-03T11:45:28.944Z,24.00
2023-04-03T11:46:57.049Z,23.90
2023-04-03T11:48:16.724Z,23.80
2023-04-03T11:50:03.604Z,23.70
2023-04-03T11:51:46.552Z,23.60
2023-04-03T11:53:25.925Z,23.50
2023-04-03T11:54:55.455Z,23.40
2023-04-03T11:56:05.083Z,23.30
2023-04-03T11:58:04.915Z,23.20
2023-04-03T11:59:29.994Z,23.20
2023-04-03T12:01:03.782Z,23.10
2023-04-03T12:04:10.494Z,23.10
2023-04-03T12:05:29.225Z,23.10
2023-04-03T12:07:19.316Z,23.10
2023-04-03T12:10:05.431Z,22.80
2023-04-03T12:11:32.323Z,22.70
2023-04-03T12:12:42.671Z,22.50
2023-04-03T12:14:17.988Z,22.40
2023-04-03T12:15:46.394Z,22.20
2023-04-03T12:16:53.510Z,22.10
2023-04-03T12:18:00.278Z,22.00
2023-04-03T12:19:39.257Z,22.00
2023-04-03T12:20:58.329Z,21.90
2023-04-03T12:23:36.470Z,21.80
2023-04-03T12:24:43.750Z,21.70
2023-04-03T12:25:53.876Z,21.70
2023-04-03T12:27:35.354Z,21.60
2023-04-03T12:28:41.104Z,21.50
2023-04-03T12:29:55.547Z,21.40
2023-04-03T12:31:14.952Z,21.30
2023-04-03T12:32:37.397Z,21.20
2023-04-03T12:34:13.381Z,21.10
2023-04-03T12:36:47.011Z,21.10
2023-04-03T12:38:23.386Z,21.00
2023-04-03T12:39:55.737Z,21.00
2023-04-03T12:41:16.612Z,21.00
2023-04-03T12:42:38.591Z,21.00
2023-04-03T12:44:02.863Z,21.00
2023-04-03T12:45:18.886Z,21.00
2023-04-03T12:46:26.961Z,21.00
2023-04-03T12:47:39.044Z,21.00
2023-04-03T12:48:57.629Z,20.90
2023-04-03T12:50:04.131Z,20.90
2023-04-03T12:51:07.922Z,20.80
2023-04-03T12:52:27.345Z,20.70
2023-04-03T12:53:36.244Z,20.70
2023-04-03T12:54:43.970Z,20.60
2023-04-03T12:55:48.420Z,20.60
2023-04-03T12:56:52.355Z,20.50
2023-04-03T12:57:57.501Z,20.50
2023-04-03T12:59:24.220Z,20.30
2023-04-03T13:00:35.509Z,20.10
2023-04-03T13:01:39.237Z,20.00
2023-04-03T13:02:48.623Z,19.80
2023-04-03T13:03:56.392Z,19.70
2023-04-03T13:05:06.761Z,19.70
2023-04-03T13:06:23.362Z,19.60
2023-04-03T13:07:34.556Z,19.50
2023-04-03T13:08:39.064Z,19.50
2023-04-03T13:09:43.148Z,19.50
2023-04-03T13:10:57.330Z,19.40
2023-04-03T13:12:10.279Z,19.40
2023-04-03T13:13:17.273Z,19.40
2023-04-03T13:14:26.695Z,19.50
2023-04-03T13:15:42.740Z,19.50
2023-04-03T13:16:57.633Z,19.50
2023-04-03T13:18:01.260Z,19.50
2023-04-03T13:19:05.187Z,19.50
2023-04-03T13:20:22.116Z,19.40
2023-04-03T13:21:28.887Z,19.30
2023-04-03T13:22:40.534Z,19.20
2023-04-03T13:23:55.193Z,19.10
2023-04-03T13:26:12.349Z,18.90
2023-04-03T13:27:15.736Z,18.80
2023-04-03T13:28:27.346Z,18.80
2023-04-03T13:29:35.518Z,18.70
2023-04-03T13:30:42.233Z,18.70
2023-04-03T13:31:46.487Z,18.60
2023-04-03T13:32:49.323Z,18.60
2023-04-03T13:34:06.861Z,18.60
2023-04-03T13:35:44.053Z,18.60
2023-04-03T13:37:00.951Z,18.70
2023-04-03T13:38:23.302Z,18.70
2023-04-03T13:39:30.080Z,18.70
2023-04-03T13:40:45.107Z,18.70
2023-04-03T13:41:53.775Z,18.70
2023-04-03T13:43:07.548Z,18.70
2023-04-03T13:44:31.200Z,18.70
2023-04-03T13:45:37.440Z,18.80
2023-04-03T13:46:41.100Z,18.90
2023-04-03T13:47:47.997Z,18.90
2023-04-03T13:48:54.200Z,18.90
2023-04-03T13:50:22.084Z,19.00
2023-04-03T13:51:30.197Z,18.90
2023-04-03T13:52:50.388Z,18.90
2023-04-03T13:53:58.044Z,18.90
2023-04-03T13:56:28.685Z,18.80
2023-04-03T13:57:31.971Z,18.70
2023-04-03T13:58:38.661Z,18.70
2023-04-03T13:59:44.221Z,18.70
2023-04-03T14:00:55.849Z,18.60
2023-04-03T14:02:21.380Z,18.60
2023-04-03T14:03:29.809Z,18.50
2023-04-03T14:04:54.247Z,18.40
2023-04-03T14:05:58.631Z,18.30
2023-04-03T14:07:02.902Z,18.30
2023-04-03T14:08:09.546Z,18.20
2023-04-03T14:09:14.070Z,18.10
2023-04-03T14:10:19.712Z,18.10
2023-04-03T14:11:29.968Z,18.00
2023-04-03T14:12:37.401Z,18.00
2023-04-03T14:13:41.728Z,18.00
2023-04-03T14:14:47.711Z,18.00
2023-04-03T14:15:53.987Z,18.00
2023-04-03T14:17:04.019Z,18.00
2023-04-03T14:18:08.041Z,17.90
2023-04-03T14:19:23.712Z,17.90
2023-04-03T14:20:29.690Z,17.90
2023-04-03T14:21:34.782Z,17.90
2023-04-03T14:22:38.706Z,17.90
2023-04-03T14:23:44.513Z,17.80
2023-04-03T14:24:48.869Z,17.80
2023-04-03T14:25:54.505Z,17.80
2023-04-03T14:26:59.827Z,17.70
2023-04-03T14:28:14.794Z,17.70
2023-04-03T14:30:29.680Z,17.50
2023-04-03T14:31:33.853Z,17.40
2023-04-03T14:32:36.643Z,17.30
2023-04-03T14:33:42.333Z,17.20
2023-04-03T14:34:52.153Z,17.10
2023-04-03T14:35:59.550Z,17.00
2023-04-03T14:37:02.660Z,17.00
2023-04-03T14:38:22.940Z,16.90
2023-04-03T14:39:26.754Z,16.80
2023-04-03T14:40:31.829Z,16.60
2023-04-03T14:41:37.450Z,16.50
2023-04-03T14:42:40.624Z,16.30
2023-04-03T14:43:46.772Z,16.20
2023-04-03T14:44:50.852Z,16.10
2023-04-03T14:45:56.918Z,16.00
2023-04-03T14:47:02.035Z,15.90
2023-04-03T14:48:08.421Z,15.70
2023-04-03T14:49:16.756Z,15.60
2023-04-03T14:50:26.583Z,15.50
2023-04-03T14:51:30.653Z,15.40
2023-04-03T14:52:38.758Z,15.20
2023-04-03T14:53:46.285Z,15.10
2023-04-03T14:54:50.610Z,15.00
2023-04-03T14:55:56.715Z,14.90
2023-04-03T14:57:03.199Z,14.90
2023-04-03T14:58:08.147Z,14.80
2023-04-03T14:59:19.547Z,14.80
2023-04-03T15:00:28.992Z,14.70
2023-04-03T15:01:33.728Z,14.60
2023-04-03T15:02:40.912Z,14.60
2023-04-03T15:03:48.992Z,14.60
2023-04-03T15:04:53.611Z,14.50
2023-04-03T15:06:00.666Z,14.50
2023-04-03T15:07:06.182Z,14.40
2023-04-03T15:08:21.736Z,14.40
2023-04-03T15:09:29.928Z,14.30
2023-04-03T15:10:36.040Z,14.20
2023-04-03T15:11:39.066Z,14.20